CST,Max TemperatureF,Mean TemperatureF,Min TemperatureF,Max Dew PointF,MeanDew PointF,Min DewpointF,Max Humidity, Mean Humidity, Min Humidity, Max Sea Level PressureIn, Mean Sea Level PressureIn, Min Sea Level PressureIn, Max VisibilityMiles, Mean VisibilityMiles, Min VisibilityMiles, Max Wind SpeedMPH, Mean Wind SpeedMPH, Max Gust SpeedMPH,PrecipitationIn, CloudCover, Events, WindDirDegrees
2013-2-1,23,14,6,22,5,-2,94,63,51,30.47,30.36,30.21,10,10,3,22,14,29,0.00,2,Snow,240
2013-2-2,37,30,23,25,20,16,87,71,60,30.20,30.09,30.04,10,10,3,18,12,23,0.00,4,Snow,263
2013-2-3,32,28,23,27,22,17,96,78,55,30.15,30.07,29.99,10,9,2,22,9,32,0.00,4,Snow,255
2013-2-4,49,38,26,34,27,18,89,74,53,30.01,29.88,29.79,10,10,10,17,12,22,0.00,3,,244
2013-2-5,48,38,28,35,29,25,92,83,60,30.12,29.96,29.87,10,8,4,18,6,21,0.00,3,,260
2013-2-6,47,36,24,33,30,24,98,80,54,30.23,30.15,30.08,10,8,3,15,5,18,0.00,0,,155
2013-2-7,44,39,34,43,36,30,99,88,72,30.07,29.96,29.86,10,7,2,22,10,28,0.09,6,Rain,185
2013-2-8,36,32,28,35,28,24,94,86,77,30.38,30.26,30.02,10,9,3,24,15,30,0.02,8,,5
2013-2-9,39,34,29,33,28,24,83,79,70,30.36,30.24,30.04,10,10,10,16,9,17,0.00,5,Rain,137
2013-2-10,50,43,36,50,41,32,99,89,55,30.04,29.76,29.61,10,7,2,31,16,36,0.47,6,Rain-Thunderstorm,164
2013-2-11,45,38,32,32,29,25,87,68,55,30.15,29.98,29.75,10,10,10,32,20,43,0.01,1,,267
2013-2-12,41,34,28,31,28,25,91,79,59,30.16,30.07,29.93,10,10,7,8,4,,0.00,2,,318
2013-2-13,49,40,32,33,31,28,97,75,48,29.94,29.85,29.79,10,9,5,20,5,23,0.00,1,,243
2013-2-14,50,41,32,36,33,31,94,77,50,30.04,29.91,29.79,10,10,10,21,9,26,0.00,2,,257
2013-2-15,36,30,24,32,21,15,91,69,45,30.25,30.19,30.05,10,10,7,18,10,23,0.00,2,,315
2013-2-16,31,25,19,20,15,9,88,67,45,30.25,30.19,30.16,10,10,10,16,11,22,0.00,1,,309
2013-2-17,40,29,18,24,20,15,88,67,47,30.20,30.10,29.94,10,10,10,17,7,21,0.00,0,,128
2013-2-18,51,41,31,47,36,24,97,81,60,29.93,29.76,29.55,10,10,3,30,19,38,0.18,5,Rain,184
2013-2-19,30,26,21,24,16,11,75,68,61,30.27,30.09,29.87,10,10,10,28,20,37,0.16,3,,285
2013-2-20,23,18,12,16,10,6,82,68,58,30.41,30.33,30.27,10,10,10,15,9,22,0.00,1,,359
2013-2-21,31,25,19,31,22,15,98,88,72,30.33,30.10,29.82,10,7,0,23,9,34,0.19,5,Snow,87
2013-2-22,34,27,20,32,27,16,100,88,73,30.05,29.92,29.79,10,8,1,18,9,23,0.11,7,Snow,231
2013-2-23,30,20,10,20,15,9,94,80,64,30.04,30.01,29.98,10,9,5,10,6,,0.00,0,,266
2013-2-24,38,24,9,28,20,7,95,80,57,30.13,30.08,30.02,10,8,2,9,3,,0.00,0,,152
2013-2-25,43,34,26,32,28,23,90,77,60,30.08,29.94,29.68,10,10,5,21,10,30,0.02,2,Rain-Thunderstorm,71
2013-2-26,37,34,32,37,33,31,100,98,90,29.66,29.47,29.36,10,4,1,29,17,39,0.65,8,Rain,28
2013-2-27,32,31,30,32,30,29,98,94,90,29.84,29.73,29.62,10,4,2,20,14,25,0.00,8,Snow,272
2013-2-28,32,31,30,30,30,29,96,92,88,30.08,29.98,29.84,7,6,3,17,13,20,0.00,8,Snow,296